Time,TemperatureF,DewpointF,PressureIn,WindDirection,WindDirectionDegrees,WindSpeedMPH,WindSpeedGustMPH,Humidity,HourlyPrecipIn,Conditions,Clouds,dailyrainin,SolarRadiationWatts/m^2,SoftwareType,DateUTC
2013-05-30 00:00:00,67.6,64.9,29.68,ESE,108,3.4,6.0,91,0.00,FEW,,0.21,0.0,WeatherDisplay:10.37,2013-05-30 05:00:00,
2013-05-30 00:05:00,67.6,64.6,29.68,SSE,153,2.1,8.1,90,0.00,RA,,0.00,0.0,WeatherDisplay:10.37,2013-05-30 05:05:00,
2013-05-30 00:10:00,67.5,64.5,29.68,South,190,3.2,6.0,90,0.00,BKN,,0.00,0.0,WeatherDisplay:10.37,2013-05-30 05:10:00,
2013-05-30 00:15:00,67.5,64.5,29.68,South,169,3.8,9.2,90,0.00,BKN,,0.00,0.0,WeatherDisplay:10.37,2013-05-30 05:15:00,
2013-05-30 00:20:00,67.4,64.4,29.68,SSE,155,2.6,5.8,90,0.00,BKN,,0.00,0.0,WeatherDisplay:10.37,2013-05-30 05:20:00,
2013-05-30 00:25:00,67.1,64.4,29.68,ESE,106,1.8,4.0,91,0.00,BKN,,0.00,0.0,WeatherDisplay:10.37,2013-05-30 05:25:00,
2013-05-30 00:30:00,66.8,64.4,29.68,South,180,2.6,6.9,92,0.00,BKN,,0.00,0.0,WeatherDisplay:10.37,2013-05-30 05:30:00,
2013-05-30 00:35:00,66.6,64.2,29.69,East,101,3.4,8.1,92,0.00,BKN,,0.00,0.0,WeatherDisplay:10.37,2013-05-30 05:35:00,
2013-05-30 00:40:00,66.5,63.8,29.69,ENE,67,3.2,6.0,91,0.00,BKN,,0.00,0.0,WeatherDisplay:10.37,2013-05-30 05:40:00,
2013-05-30 00:45:00,66.3,63.9,29.69,South,174,2.4,6.9,92,0.00,BKN,,0.00,0.0,WeatherDisplay:10.37,2013-05-30 05:45:00,
2013-05-30 00:50:00,66.2,63.8,29.69,South,170,1.3,3.5,92,0.00,BKN,,0.00,0.0,WeatherDisplay:10.37,2013-05-30 05:50:00,
2013-05-30 00:55:00,65.9,63.5,29.70,SSE,167,2.4,6.9,92,0.00,BKN,,0.00,0.0,WeatherDisplay:10.37,2013-05-30 05:55:00,
2013-05-30 01:00:00,65.8,63.4,29.69,SW,216,1.6,4.6,92,0.00,BKN,,0.00,0.0,WeatherDisplay:10.37,2013-05-30 06:00:00,
2013-05-30 01:05:00,65.6,63.2,29.69,SSE,168,4.2,8.1,92,0.00,OVC,,0.00,0.0,WeatherDisplay:10.37,2013-05-30 06:05:00,
2013-05-30 01:10:00,65.4,63.0,29.69,SSW,202,2.3,5.0,92,0.00,OVC,,0.00,0.0,WeatherDisplay:10.37,2013-05-30 06:10:00,
2013-05-30 01:15:00,65.3,63.2,29.69,West,275,3.9,6.0,93,0.00,OVC,,0.00,0.0,WeatherDisplay:10.37,2013-05-30 06:15:00,
2013-05-30 01:20:00,65.2,63.1,29.69,SSE,159,4.0,9.2,93,0.00,OVC,,0.00,0.0,WeatherDisplay:10.37,2013-05-30 06:20:00,
2013-05-30 01:25:00,64.9,62.8,29.68,East,98,4.9,8.1,93,0.00,OVC,,0.00,0.0,WeatherDisplay:10.37,2013-05-30 06:25:00,
2013-05-30 01:30:00,64.7,62.9,29.68,West,264,3.8,8.1,94,0.00,OVC,,0.00,0.0,WeatherDisplay:10.37,2013-05-30 06:30:00,
2013-05-30 01:35:00,64.5,62.7,29.67,South,191,2.4,6.0,94,0.00,OVC,,0.00,0.0,WeatherDisplay:10.37,2013-05-30 06:35:00,
2013-05-30 01:40:00,64.4,62.6,29.67,South,174,5.1,9.0,94,0.00,OVC,,0.00,0.0,WeatherDisplay:10.37,2013-05-30 06:40:00,
2013-05-30 01:45:00,64.3,62.8,29.67,SSE,150,3.1,6.0,95,0.00,OVC,,0.00,0.0,WeatherDisplay:10.37,2013-05-30 06:45:00,
2013-05-30 01:50:00,64.3,62.8,29.67,SE,143,5.0,11.0,95,0.00,OVC,,0.00,0.0,WeatherDisplay:10.37,2013-05-30 06:50:00,
2013-05-30 01:55:00,64.2,62.7,29.67,SSE,159,1.4,5.8,95,0.00,OVC,,0.00,0.0,WeatherDisplay:10.37,2013-05-30 06:55:00,
2013-05-30 02:00:00,64.1,62.6,29.67,SSE,156,2.8,5.0,95,0.00,OVC,,0.00,0.0,WeatherDisplay:10.37,2013-05-30 07:00:00,
2013-05-30 02:06:00,64.0,62.5,29.67,ESE,119,4.7,9.2,95,0.00,-RA,,0.00,0.0,WeatherDisplay:10.37,2013-05-30 07:06:00,
2013-05-30 02:11:00,64.0,62.5,29.66,SSW,198,2.8,5.0,95,0.00,-RA,,0.00,0.0,WeatherDisplay:10.37,2013-05-30 07:11:00,
2013-05-30 02:16:00,64.0,62.5,29.66,SE,137,1.6,3.5,95,0.00,-RA,,0.00,0.0,WeatherDisplay:10.37,2013-05-30 07:16:00,
2013-05-30 02:21:00,63.9,62.4,29.66,South,186,3.1,6.0,95,0.00,-RA,,0.00,0.0,WeatherDisplay:10.37,2013-05-30 07:21:00,
2013-05-30 02:26:00,64.0,62.5,29.66,SSW,209,4.7,8.1,95,0.00,-RA,,0.00,0.0,WeatherDisplay:10.37,2013-05-30 07:26:00,
2013-05-30 02:31:00,64.0,62.5,29.66,South,188,1.9,4.0,95,0.00,-RA,,0.00,0.0,WeatherDisplay:10.37,2013-05-30 07:31:00,
2013-05-30 02:36:00,64.1,62.6,29.66,SSW,192,4.4,7.0,95,0.00,-RA,,0.00,0.0,WeatherDisplay:10.37,2013-05-30 07:36:00,
2013-05-30 02:41:00,64.1,62.6,29.66,SW,219,3.6,7.0,95,0.00,-RA,,0.00,0.0,WeatherDisplay:10.37,2013-05-30 07:41:00,
2013-05-30 02:46:00,64.2,62.7,29.66,SSE,168,4.6,8.1,95,0.00,-RA,,0.00,0.0,WeatherDisplay:10.37,2013-05-30 07:46:00,
2013-05-30 02:51:00,64.3,62.8,29.65,SSW,192,3.5,6.9,95,0.00,-RA,,0.00,0.0,WeatherDisplay:10.37,2013-05-30 07:51:00,
2013-05-30 02:56:00,64.3,62.5,29.65,East,89,3.6,7.0,94,0.00,-RA,,0.00,0.0,WeatherDisplay:10.37,2013-05-30 07:56:00,
2013-05-30 03:01:00,64.3,62.5,29.65,SSW,204,4.2,7.0,94,0.00,-RA,,0.00,0.0,WeatherDisplay:10.37,2013-05-30 08:01:00,
2013-05-30 03:06:00,64.3,62.5,29.65,SSW,196,2.0,5.0,94,0.00,OVC,,0.00,0.0,WeatherDisplay:10.37,2013-05-30 08:06:00,
2013-05-30 03:11:00,64.3,62.8,29.65,South,185,3.6,6.0,95,0.00,OVC,,0.00,0.0,WeatherDisplay:10.37,2013-05-30 08:11:00,
2013-05-30 03:16:00,64.3,62.8,29.65,SE,146,3.6,9.2,95,0.00,OVC,,0.00,0.0,WeatherDisplay:10.37,2013-05-30 08:16:00,
2013-05-30 03:21:00,64.2,62.7,29.65,South,170,2.9,6.0,95,0.00,OVC,,0.00,0.0,WeatherDisplay:10.37,2013-05-30 08:21:00,
2013-05-30 03:26:00,64.2,62.7,29.65,SSE,161,3.8,8.1,95,0.00,OVC,,0.00,0.0,WeatherDisplay:10.37,2013-05-30 08:26:00,
2013-05-30 03:31:00,64.2,62.7,29.65,South,178,3.3,10.0,95,0.00,OVC,,0.00,0.0,WeatherDisplay:10.37,2013-05-30 08:31:00,
2013-05-30 03:36:00,64.2,62.7,29.64,South,169,0.8,3.5,95,0.00,OVC,,0.00,0.0,WeatherDisplay:10.37,2013-05-30 08:36:00,
2013-05-30 03:41:00,64.2,62.7,29.64,SSW,201,3.0,5.0,95,0.00,OVC,,0.00,0.0,WeatherDisplay:10.37,2013-05-30 08:41:00,
2013-05-30 03:46:00,64.2,62.7,29.64,South,184,3.6,7.0,95,0.00,OVC,,0.00,0.0,WeatherDisplay:10.37,2013-05-30 08:46:00,
2013-05-30 03:51:00,64.3,62.8,29.64,SW,227,3.2,6.0,95,0.00,OVC,,0.00,0.0,WeatherDisplay:10.37,2013-05-30 08:51:00,
2013-05-30 03:56:00,64.3,62.8,29.64,East,85,3.8,7.0,95,0.00,OVC,,0.00,0.0,WeatherDisplay:10.37,2013-05-30 08:56:00,
2013-05-30 04:01:00,64.3,62.8,29.63,SSE,165,1.5,3.5,95,0.00,BKN,,0.00,0.0,WeatherDisplay:10.37,2013-05-30 09:01:00,
2013-05-30 04:06:00,64.3,62.8,29.63,SSE,164,1.7,3.5,95,0.00,BKN,,0.00,0.0,WeatherDisplay:10.37,2013-05-30 09:06:00,
2013-05-30 04:11:00,64.1,62.6,29.63,SE,146,1.7,3.5,95,0.00,BKN,,0.00,0.0,WeatherDisplay:10.37,2013-05-30 09:11:00,
2013-05-30 04:16:00,64.1,62.6,29.62,SSE,152,2.5,6.0,95,0.00,BKN,,0.00,0.0,WeatherDisplay:10.37,2013-05-30 09:16:00,
2013-05-30 04:21:00,64.1,62.6,29.62,SSW,204,1.6,3.5,95,0.00,BKN,,0.00,0.0,WeatherDisplay:10.37,2013-05-30 09:21:00,
2013-05-30 04:26:00,64.0,62.5,29.62,South,174,1.0,3.5,95,0.00,BKN,,0.00,0.0,WeatherDisplay:10.37,2013-05-30 09:26:00,
2013-05-30 04:31:00,63.8,62.3,29.62,East,96,1.3,3.5,95,0.00,BKN,,0.00,0.0,WeatherDisplay:10.37,2013-05-30 09:31:00,
2013-05-30 04:36:00,63.7,62.2,29.62,South,184,2.3,5.0,95,0.00,BKN,,0.00,0.0,WeatherDisplay:10.37,2013-05-30 09:36:00,
2013-05-30 04:41:00,63.6,62.1,29.63,South,184,1.6,4.0,95,0.00,BKN,,0.00,0.0,WeatherDisplay:10.37,2013-05-30 09:41:00,
2013-05-30 04:46:00,63.5,62.3,29.62,SW,219,1.0,4.0,96,0.00,BKN,,0.00,0.0,WeatherDisplay:10.37,2013-05-30 09:46:00,
2013-05-30 04:51:00,63.5,62.3,29.62,SSW,207,0.5,3.0,96,0.00,BKN,,0.00,0.0,WeatherDisplay:10.37,2013-05-30 09:51:00,
2013-05-30 04:56:00,63.5,62.3,29.62,South,184,0.6,5.8,96,0.00,BKN,,0.00,0.0,WeatherDisplay:10.37,2013-05-30 09:56:00,
2013-05-30 05:01:00,63.4,62.2,29.61,SSW,193,1.2,4.0,96,0.00,BKN,,0.00,0.0,WeatherDisplay:10.37,2013-05-30 10:01:00,
2013-05-30 05:06:00,63.4,62.2,29.61,NE,52,1.3,4.0,96,0.00,BKN,,0.00,0.0,WeatherDisplay:10.37,2013-05-30 10:06:00,
2013-05-30 05:11:00,63.4,62.2,29.61,SSE,156,0.9,3.0,96,0.00,BKN,,0.00,0.0,WeatherDisplay:10.37,2013-05-30 10:11:00,
2013-05-30 05:16:00,63.6,62.4,29.61,NE,45,1.4,4.6,96,0.00,BKN,,0.00,0.0,WeatherDisplay:10.37,2013-05-30 10:16:00,
2013-05-30 05:21:00,63.6,62.4,29.61,South,171,1.2,3.5,96,0.00,BKN,,0.00,0.0,WeatherDisplay:10.37,2013-05-30 10:21:00,
2013-05-30 05:26:00,63.7,62.5,29.61,SSE,164,1.6,3.5,96,0.00,BKN,,0.00,0.0,WeatherDisplay:10.37,2013-05-30 10:26:00,
2013-05-30 05:31:00,63.8,62.6,29.61,SSE,168,1.9,6.0,96,0.00,BKN,,0.00,0.0,WeatherDisplay:10.37,2013-05-30 10:31:00,
2013-05-30 05:36:00,63.9,62.7,29.62,SSE,163,2.2,6.0,96,0.00,BKN,,0.00,0.0,WeatherDisplay:10.37,2013-05-30 10:36:00,
2013-05-30 05:41:00,64.0,62.8,29.62,South,174,1.2,5.0,96,0.00,BKN,,0.00,0.0,WeatherDisplay:10.37,2013-05-30 10:41:00,
2013-05-30 05:46:00,64.1,62.9,29.62,SW,223,1.5,3.5,96,0.00,BKN,,0.00,0.0,WeatherDisplay:10.37,2013-05-30 10:46:00,
2013-05-30 05:51:00,64.2,63.0,29.62,West,274,1.0,2.3,96,0.00,BKN,,0.00,0.0,WeatherDisplay:10.37,2013-05-30 10:51:00,
2013-05-30 05:56:00,64.3,63.1,29.62,SSW,199,1.2,3.5,96,0.00,BKN,,0.00,0.0,WeatherDisplay:10.37,2013-05-30 10:56:00,
2013-05-30 06:01:00,64.4,63.5,29.62,ESE,123,2.3,3.5,97,0.00,BKN,,0.00,0.0,WeatherDisplay:10.37,2013-05-30 11:01:00,
2013-05-30 06:06:00,64.6,63.7,29.62,SSW,211,3.9,7.0,97,0.00,OVC,,0.00,5.0,WeatherDisplay:10.37,2013-05-30 11:06:00,
2013-05-30 06:11:00,64.9,63.7,29.62,SSE,157,3.9,7.0,96,0.00,OVC,,0.00,12.0,WeatherDisplay:10.37,2013-05-30 11:11:00,
2013-05-30 06:16:00,65.0,63.8,29.61,South,183,2.0,4.0,96,0.00,OVC,,0.00,21.0,WeatherDisplay:10.37,2013-05-30 11:16:00,
2013-05-30 06:21:00,65.3,64.1,29.61,South,171,3.4,6.0,96,0.00,OVC,,0.00,19.0,WeatherDisplay:10.37,2013-05-30 11:21:00,
2013-05-30 06:26:00,65.6,64.4,29.61,SSW,198,1.8,3.5,96,0.00,OVC,,0.00,25.0,WeatherDisplay:10.37,2013-05-30 11:26:00,
2013-05-30 06:31:00,65.8,64.6,29.61,South,189,0.8,3.0,96,0.00,OVC,,0.00,28.0,WeatherDisplay:10.37,2013-05-30 11:31:00,
2013-05-30 06:36:00,65.9,64.4,29.60,South,190,2.0,5.0,95,0.00,OVC,,0.00,28.0,WeatherDisplay:10.37,2013-05-30 11:36:00,
2013-05-30 06:41:00,65.9,64.4,29.60,WSW,238,2.1,5.0,95,0.00,OVC,,0.00,33.0,WeatherDisplay:10.37,2013-05-30 11:41:00,
2013-05-30 06:46:00,65.9,64.4,29.60,SSW,207,1.0,3.5,95,0.00,OVC,,0.00,35.0,WeatherDisplay:10.37,2013-05-30 11:46:00,
2013-05-30 06:51:00,65.9,64.4,29.60,SE,136,2.1,4.0,95,0.00,OVC,,0.00,60.0,WeatherDisplay:10.37,2013-05-30 11:51:00,
2013-05-30 06:56:00,66.0,64.5,29.59,SSW,194,0.8,5.0,95,0.00,OVC,,0.00,81.0,WeatherDisplay:10.37,2013-05-30 11:56:00,
2013-05-30 07:01:00,66.0,64.5,29.59,SE,138,1.1,4.0,95,0.00,OVC,,0.00,102.0,WeatherDisplay:10.37,2013-05-30 12:01:00,
2013-05-30 07:06:00,66.1,64.6,29.60,South,171,2.2,4.0,95,0.00,-RA,,0.00,76.0,WeatherDisplay:10.37,2013-05-30 12:06:00,
2013-05-30 07:11:00,66.2,64.7,29.60,ESE,115,0.6,2.3,95,0.00,-RA,,0.00,88.0,WeatherDisplay:10.37,2013-05-30 12:11:00,
2013-05-30 07:16:00,66.2,65.0,29.60,SSE,155,1.0,3.5,96,0.00,-RA,,0.00,76.0,WeatherDisplay:10.37,2013-05-30 12:16:00,
2013-05-30 07:21:00,66.3,64.8,29.62,SW,217,2.9,5.0,95,0.00,-RA,,0.00,54.0,WeatherDisplay:10.37,2013-05-30 12:21:00,
2013-05-30 07:26:00,66.3,64.8,29.62,SSE,157,2.1,3.5,95,0.00,-RA,,0.00,65.0,WeatherDisplay:10.37,2013-05-30 12:26:00,
2013-05-30 07:31:00,66.3,64.8,29.62,South,173,0.8,2.3,95,0.00,-RA,,0.00,49.0,WeatherDisplay:10.37,2013-05-30 12:31:00,
2013-05-30 07:36:00,66.3,64.8,29.62,SSE,150,1.0,3.5,95,0.00,-RA,,0.00,37.0,WeatherDisplay:10.37,2013-05-30 12:36:00,
2013-05-30 07:41:00,66.3,65.1,29.62,SSE,150,0.6,2.3,96,0.00,-RA,,0.00,40.0,WeatherDisplay:10.37,2013-05-30 12:41:00,
2013-05-30 07:46:00,66.3,65.1,29.62,SE,144,1.5,3.5,96,0.00,-RA,,0.00,16.0,WeatherDisplay:10.37,2013-05-30 12:46:00,
2013-05-30 07:51:00,66.1,64.9,29.62,SSE,161,0.7,4.0,96,0.00,-RA,,0.00,28.0,WeatherDisplay:10.37,2013-05-30 12:51:00,
2013-05-30 07:56:00,66.1,64.9,29.62,NE,52,1.1,2.3,96,0.01,-RA,,0.01,21.0,WeatherDisplay:10.37,2013-05-30 12:56:00,
2013-05-30 08:01:00,66.0,64.8,29.62,South,178,3.7,5.0,96,0.01,RA,,0.01,18.0,WeatherDisplay:10.37,2013-05-30 13:01:00,
2013-05-30 08:06:00,65.9,64.7,29.62,South,178,0.6,2.3,96,0.01,OVC,,0.01,12.0,WeatherDisplay:10.37,2013-05-30 13:06:00,
2013-05-30 08:11:00,65.9,64.7,29.62,South,178,0.4,1.2,96,0.01,OVC,,0.01,21.0,WeatherDisplay:10.37,2013-05-30 13:11:00,
2013-05-30 08:16:00,65.9,65.0,29.62,SSE,161,2.0,3.5,97,0.01,OVC,,0.01,35.0,WeatherDisplay:10.37,2013-05-30 13:16:00,
2013-05-30 08:21:00,66.0,64.8,29.62,SSW,196,3.1,8.1,96,0.01,OVC,,0.01,40.0,WeatherDisplay:10.37,2013-05-30 13:21:00,
2013-05-30 08:26:00,66.2,65.0,29.62,West,260,1.6,4.0,96,0.01,OVC,,0.01,98.0,WeatherDisplay:10.37,2013-05-30 13:26:00,
2013-05-30 08:31:00,66.5,65.3,29.61,SE,140,3.2,7.0,96,0.01,OVC,,0.01,97.0,WeatherDisplay:10.37,2013-05-30 13:31:00,
2013-05-30 08:36:00,66.6,65.1,29.61,SE,136,1.0,3.5,95,0.01,OVC,,0.01,49.0,WeatherDisplay:10.37,2013-05-30 13:36:00,
2013-05-30 08:41:00,66.6,65.1,29.61,South,175,1.9,3.5,95,0.01,OVC,,0.01,93.0,WeatherDisplay:10.37,2013-05-30 13:41:00,
2013-05-30 08:46:00,66.7,65.2,29.61,SSW,205,2.0,4.0,95,0.01,OVC,,0.01,239.0,WeatherDisplay:10.37,2013-05-30 13:46:00,
2013-05-30 08:51:00,67.1,65.6,29.61,ESE,107,1.2,3.5,95,0.01,OVC,,0.01,98.0,WeatherDisplay:10.37,2013-05-30 13:51:00,
2013-05-30 08:56:00,67.3,65.8,29.61,South,177,1.9,5.0,95,0.01,OVC,,0.01,63.0,WeatherDisplay:10.37,2013-05-30 13:56:00,
2013-05-30 09:01:00,67.1,65.6,29.62,South,177,2.2,6.0,95,0.00,BKN,,0.01,51.0,WeatherDisplay:10.37,2013-05-30 14:01:00,
2013-05-30 09:06:00,67.0,65.5,29.61,South,180,0.6,3.5,95,0.00,BKN,,0.01,49.0,WeatherDisplay:10.37,2013-05-30 14:06:00,
2013-05-30 09:11:00,66.9,65.4,29.61,South,175,1.2,3.5,95,0.00,BKN,,0.01,30.0,WeatherDisplay:10.37,2013-05-30 14:11:00,
2013-05-30 09:16:00,66.7,65.2,29.61,ESE,115,2.7,7.0,95,0.02,RA,,0.03,47.0,WeatherDisplay:10.37,2013-05-30 14:16:00,
2013-05-30 09:21:00,66.5,65.3,29.61,SW,222,2.8,4.0,96,0.04,RA,,0.06,32.0,WeatherDisplay:10.37,2013-05-30 14:21:00,
2013-05-30 09:26:00,66.3,65.1,29.61,SSE,156,0.9,3.5,96,0.07,RA,,0.08,42.0,WeatherDisplay:10.37,2013-05-30 14:26:00,
2013-05-30 09:31:00,66.2,65.3,29.62,South,172,0.0,1.2,97,0.07,RA,,0.08,26.0,WeatherDisplay:10.37,2013-05-30 14:31:00,
2013-05-30 09:36:00,66.1,65.2,29.62,South,184,0.2,2.3,97,0.07,BKN,,0.08,35.0,WeatherDisplay:10.37,2013-05-30 14:36:00,
2013-05-30 09:41:00,66.1,65.2,29.62,South,176,2.6,4.0,97,0.07,BKN,,0.08,67.0,WeatherDisplay:10.37,2013-05-30 14:41:00,
2013-05-30 09:46:00,66.2,65.3,29.62,SSE,168,3.4,8.1,97,0.07,BKN,,0.08,86.0,WeatherDisplay:10.37,2013-05-30 14:46:00,
2013-05-30 09:51:00,66.3,65.4,29.61,SSE,164,3.3,6.0,97,0.08,RA,,0.09,218.0,WeatherDisplay:10.37,2013-05-30 14:51:00,
2013-05-30 09:56:00,66.5,65.6,29.62,East,84,5.1,8.1,97,0.08,RA,,0.09,158.0,WeatherDisplay:10.37,2013-05-30 14:56:00,
2013-05-30 10:01:00,66.5,65.6,29.62,South,187,3.0,6.0,97,0.08,BKN,,0.09,70.0,WeatherDisplay:10.37,2013-05-30 15:01:00,
2013-05-30 10:06:00,66.3,65.4,29.61,SSW,207,5.6,11.5,97,0.09,RA,,0.10,178.0,WeatherDisplay:10.37,2013-05-30 15:06:00,
2013-05-30 10:11:00,66.3,65.4,29.61,South,177,4.9,10.4,97,0.10,RA,,0.11,318.0,WeatherDisplay:10.37,2013-05-30 15:11:00,
2013-05-30 10:16:00,66.5,65.6,29.62,SSE,164,3.4,6.0,97,0.08,RA,,0.11,163.0,WeatherDisplay:10.37,2013-05-30 15:16:00,
2013-05-30 10:21:00,66.5,65.6,29.61,South,184,2.8,6.0,97,0.06,OVC,,0.11,276.0,WeatherDisplay:10.37,2013-05-30 15:21:00,
2013-05-30 10:26:00,66.9,66.0,29.61,South,183,4.8,8.1,97,0.03,OVC,,0.11,376.0,WeatherDisplay:10.37,2013-05-30 15:26:00,
2013-05-30 10:31:00,67.0,65.8,29.62,South,176,5.3,9.0,96,0.03,OVC,,0.11,334.0,WeatherDisplay:10.37,2013-05-30 15:31:00,
2013-05-30 10:36:00,67.0,65.8,29.62,SSW,197,4.5,7.0,96,0.03,OVC,,0.11,197.0,WeatherDisplay:10.37,2013-05-30 15:36:00,
2013-05-30 10:41:00,66.7,65.5,29.62,SSE,166,2.8,18.4,96,0.03,OVC,,0.11,244.0,WeatherDisplay:10.37,2013-05-30 15:41:00,
2013-05-30 10:46:00,66.9,65.7,29.62,SSE,167,2.5,5.8,96,0.03,OVC,,0.11,253.0,WeatherDisplay:10.37,2013-05-30 15:46:00,
2013-05-30 10:51:00,67.3,65.8,29.62,SW,222,4.8,10.4,95,0.02,OVC,,0.11,397.0,WeatherDisplay:10.37,2013-05-30 15:51:00,
2013-05-30 10:56:00,67.6,65.8,29.61,SSE,157,5.5,13.0,94,0.02,OVC,,0.11,320.0,WeatherDisplay:10.37,2013-05-30 15:56:00,
2013-05-30 11:01:00,67.6,65.5,29.61,SE,136,3.3,9.0,93,0.02,OVC,,0.11,172.0,WeatherDisplay:10.37,2013-05-30 16:01:00,
2013-05-30 11:06:00,67.7,65.9,29.61,SE,130,1.8,3.5,94,0.01,SCT,,0.11,376.0,WeatherDisplay:10.37,2013-05-30 16:06:00,
2013-05-30 11:11:00,67.9,65.8,29.62,SSE,167,3.4,7.0,93,0.00,SCT,,0.11,315.0,WeatherDisplay:10.37,2013-05-30 16:11:00,
2013-05-30 11:16:00,68.0,65.9,29.62,East,99,3.8,7.0,93,0.00,SCT,,0.11,316.0,WeatherDisplay:10.37,2013-05-30 16:16:00,
2013-05-30 11:21:00,68.3,65.9,29.61,SSE,166,5.3,10.4,92,0.00,SCT,,0.11,422.0,WeatherDisplay:10.37,2013-05-30 16:21:00,
2013-05-30 11:26:00,68.7,65.6,29.62,SSE,149,6.3,10.4,90,0.00,SCT,,0.11,698.0,WeatherDisplay:10.37,2013-05-30 16:26:00,
2013-05-30 11:31:00,69.6,66.5,29.61,SSE,150,4.7,9.2,90,0.00,SCT,,0.11,810.0,WeatherDisplay:10.37,2013-05-30 16:31:00,
2013-05-30 11:36:00,70.6,67.2,29.61,South,173,5.2,9.0,89,0.00,SCT,,0.11,772.0,WeatherDisplay:10.37,2013-05-30 16:36:00,
2013-05-30 11:41:00,70.6,66.2,29.61,South,186,4.2,9.2,86,0.00,SCT,,0.11,513.0,WeatherDisplay:10.37,2013-05-30 16:41:00,
2013-05-30 11:46:00,70.4,65.7,29.61,SSW,212,4.3,7.0,85,0.00,SCT,,0.11,434.0,WeatherDisplay:10.37,2013-05-30 16:46:00,
2013-05-30 11:51:00,70.3,65.6,29.61,SSE,168,3.2,6.0,85,0.00,SCT,,0.11,350.0,WeatherDisplay:10.37,2013-05-30 16:51:00,
2013-05-30 11:56:00,70.1,65.0,29.61,ESE,115,6.1,15.0,84,0.00,SCT,,0.11,320.0,WeatherDisplay:10.37,2013-05-30 16:56:00,
2013-05-30 12:01:00,69.9,64.8,29.62,South,175,4.4,8.1,84,0.00,SCT,,0.11,232.0,WeatherDisplay:10.37,2013-05-30 17:01:00,
2013-05-30 12:06:00,69.8,64.7,29.62,East,98,5.0,12.7,84,0.00,OVC,,0.11,408.0,WeatherDisplay:10.37,2013-05-30 17:06:00,
2013-05-30 12:11:00,69.9,64.8,29.62,SE,134,4.5,10.0,84,0.00,OVC,,0.11,345.0,WeatherDisplay:10.37,2013-05-30 17:11:00,
2013-05-30 12:16:00,70.1,65.7,29.62,WSW,238,3.4,7.0,86,0.00,OVC,,0.11,288.0,WeatherDisplay:10.37,2013-05-30 17:16:00,
2013-05-30 12:21:00,70.1,65.0,29.62,SE,144,5.3,8.1,84,0.00,OVC,,0.11,329.0,WeatherDisplay:10.37,2013-05-30 17:21:00,
2013-05-30 12:26:00,70.0,64.9,29.62,South,178,4.0,7.0,84,0.00,OVC,,0.11,253.0,WeatherDisplay:10.37,2013-05-30 17:26:00,
2013-05-30 12:31:00,69.9,64.8,29.62,SSE,160,5.2,10.4,84,0.00,OVC,,0.11,255.0,WeatherDisplay:10.37,2013-05-30 17:31:00,
2013-05-30 12:36:00,69.8,64.1,29.62,ENE,78,6.9,9.2,82,0.00,OVC,,0.11,223.0,WeatherDisplay:10.37,2013-05-30 17:36:00,
2013-05-30 12:41:00,69.9,64.8,29.62,East,98,3.0,6.0,84,0.00,OVC,,0.11,197.0,WeatherDisplay:10.37,2013-05-30 17:41:00,
2013-05-30 12:46:00,69.7,64.0,29.62,SSE,159,7.0,8.1,82,0.00,OVC,,0.11,229.0,WeatherDisplay:10.37,2013-05-30 17:46:00,
2013-05-30 12:51:00,69.8,64.1,29.62,SSE,157,3.8,10.4,82,0.00,OVC,,0.11,327.0,WeatherDisplay:10.37,2013-05-30 17:51:00,
2013-05-30 12:56:00,70.0,63.9,29.62,SSE,168,4.1,11.5,81,0.00,OVC,,0.11,246.0,WeatherDisplay:10.37,2013-05-30 17:56:00,
2013-05-30 13:01:00,70.0,64.2,29.62,South,178,4.1,8.0,82,0.00,OVC,,0.11,220.0,WeatherDisplay:10.37,2013-05-30 18:01:00,
2013-05-30 13:06:00,70.0,64.2,29.62,SSW,198,2.7,6.0,82,0.00,OVC,,0.11,237.0,WeatherDisplay:10.37,2013-05-30 18:06:00,
2013-05-30 13:11:00,70.0,63.9,29.62,South,175,6.1,11.0,81,0.00,OVC,,0.11,214.0,WeatherDisplay:10.37,2013-05-30 18:11:00,
2013-05-30 13:16:00,69.9,63.8,29.62,SSE,168,6.9,11.5,81,0.00,OVC,,0.11,197.0,WeatherDisplay:10.37,2013-05-30 18:16:00,
2013-05-30 13:21:00,69.8,64.1,29.62,SSE,165,5.0,9.2,82,0.00,OVC,,0.11,213.0,WeatherDisplay:10.37,2013-05-30 18:21:00,
2013-05-30 13:26:00,69.8,64.1,29.62,South,175,4.9,9.2,82,0.00,OVC,,0.11,227.0,WeatherDisplay:10.37,2013-05-30 18:26:00,
2013-05-30 13:31:00,69.8,64.1,29.62,ESE,115,4.5,7.0,82,0.00,OVC,,0.11,260.0,WeatherDisplay:10.37,2013-05-30 18:31:00,
2013-05-30 13:36:00,69.8,63.7,29.62,South,178,6.6,13.0,81,0.00,OVC,,0.11,178.0,WeatherDisplay:10.37,2013-05-30 18:36:00,
2013-05-30 13:41:00,69.7,63.6,29.62,ESE,123,4.5,9.0,81,0.00,OVC,,0.11,156.0,WeatherDisplay:10.37,2013-05-30 18:41:00,
2013-05-30 13:46:00,69.4,63.3,29.62,South,172,6.2,12.0,81,0.00,OVC,,0.11,163.0,WeatherDisplay:10.37,2013-05-30 18:46:00,
2013-05-30 13:51:00,69.2,63.8,29.62,SSE,165,1.7,4.0,83,0.00,OVC,,0.11,178.0,WeatherDisplay:10.37,2013-05-30 18:51:00,
2013-05-30 13:56:00,69.1,63.7,29.62,South,176,5.0,11.0,83,0.00,OVC,,0.11,188.0,WeatherDisplay:10.37,2013-05-30 18:56:00,
2013-05-30 14:01:00,69.1,64.1,29.62,SSW,198,2.3,6.9,84,0.00,OVC,,0.11,304.0,WeatherDisplay:10.37,2013-05-30 19:01:00,
2013-05-30 14:06:00,69.4,64.0,29.62,SSE,163,5.8,11.0,83,0.00,OVC,,0.11,302.0,WeatherDisplay:10.37,2013-05-30 19:06:00,
2013-05-30 14:11:00,69.6,63.9,29.62,SSE,165,6.6,11.5,82,0.00,OVC,,0.11,364.0,WeatherDisplay:10.37,2013-05-30 19:11:00,
2013-05-30 14:16:00,69.6,63.9,29.62,South,176,3.6,12.7,82,0.00,OVC,,0.11,313.0,WeatherDisplay:10.37,2013-05-30 19:16:00,
2013-05-30 14:21:00,69.9,64.2,29.62,SE,132,5.7,13.0,82,0.00,OVC,,0.11,397.0,WeatherDisplay:10.37,2013-05-30 19:21:00,
2013-05-30 14:26:00,70.0,63.9,29.62,South,169,9.1,22.0,81,0.00,OVC,,0.11,429.0,WeatherDisplay:10.37,2013-05-30 19:26:00,
2013-05-30 14:31:00,70.2,64.1,29.62,SSW,192,4.4,10.4,81,0.00,OVC,,0.11,325.0,WeatherDisplay:10.37,2013-05-30 19:31:00,
2013-05-30 14:36:00,70.5,64.7,29.61,SSE,166,5.0,8.1,82,0.00,OVC,,0.11,506.0,WeatherDisplay:10.37,2013-05-30 19:36:00,
2013-05-30 14:41:00,71.1,65.0,29.61,SSE,153,3.4,6.0,81,0.00,OVC,,0.11,707.0,WeatherDisplay:10.37,2013-05-30 19:41:00,
2013-05-30 14:46:00,72.2,64.6,29.61,South,171,4.8,10.4,77,0.00,OVC,,0.11,566.0,WeatherDisplay:10.37,2013-05-30 19:46:00,
2013-05-30 14:51:00,72.2,65.3,29.61,SSE,163,3.1,8.1,79,0.00,OVC,,0.11,329.0,WeatherDisplay:10.37,2013-05-30 19:51:00,
2013-05-30 14:56:00,72.4,64.8,29.61,SSW,194,5.5,8.1,77,0.00,OVC,,0.11,299.0,WeatherDisplay:10.37,2013-05-30 19:56:00,
2013-05-30 15:01:00,72.0,64.8,29.61,South,184,4.7,9.0,78,0.00,OVC,,0.11,487.0,WeatherDisplay:10.37,2013-05-30 20:01:00,
2013-05-30 15:06:00,72.5,65.2,29.61,South,169,5.9,11.5,78,0.00,OVC,,0.11,406.0,WeatherDisplay:10.37,2013-05-30 20:06:00,
2013-05-30 15:11:00,72.8,64.8,29.60,SE,128,6.1,14.0,76,0.00,OVC,,0.11,817.0,WeatherDisplay:10.37,2013-05-30 20:11:00,
2013-05-30 15:16:00,74.2,65.8,29.60,South,176,5.1,9.2,75,0.00,OVC,,0.11,988.0,WeatherDisplay:10.37,2013-05-30 20:16:00,
2013-05-30 15:22:00,74.2,65.0,29.60,SSE,154,4.3,8.1,73,0.00,OVC,,0.11,494.0,WeatherDisplay:10.37,2013-05-30 20:22:00,
2013-05-30 15:27:00,73.8,65.0,29.60,SSW,200,3.8,7.0,74,0.00,OVC,,0.11,837.0,WeatherDisplay:10.37,2013-05-30 20:27:00,
2013-05-30 15:32:00,74.3,65.1,29.59,SSE,156,6.5,11.5,73,0.00,OVC,,0.11,320.0,WeatherDisplay:10.37,2013-05-30 20:32:00,
2013-05-30 15:37:00,74.4,65.2,29.59,ESE,119,5.7,10.0,73,0.00,OVC,,0.11,1004.0,WeatherDisplay:10.37,2013-05-30 20:37:00,
2013-05-30 15:42:00,74.4,64.4,29.59,East,98,6.6,13.0,71,0.00,OVC,,0.11,789.0,WeatherDisplay:10.37,2013-05-30 20:42:00,
2013-05-30 15:47:00,74.5,65.3,29.59,SSE,159,5.2,11.5,73,0.00,OVC,,0.11,561.0,WeatherDisplay:10.37,2013-05-30 20:47:00,
2013-05-30 15:52:00,74.4,64.8,29.59,SSW,202,7.6,12.0,72,0.00,OVC,,0.11,427.0,WeatherDisplay:10.37,2013-05-30 20:52:00,
2013-05-30 15:57:00,74.4,65.2,29.59,SE,136,7.6,11.0,73,0.00,OVC,,0.11,427.0,WeatherDisplay:10.37,2013-05-30 20:57:00,
2013-05-30 16:02:00,74.4,64.4,29.58,SE,145,8.8,18.0,71,0.00,OVC,,0.11,489.0,WeatherDisplay:10.37,2013-05-30 21:02:00,
2013-05-30 16:07:00,74.3,64.7,29.59,SW,217,6.5,9.2,72,0.00,OVC,,0.11,357.0,WeatherDisplay:10.37,2013-05-30 21:07:00,
2013-05-30 16:12:00,74.3,65.1,29.58,South,179,3.4,10.4,73,0.00,OVC,,0.11,396.0,WeatherDisplay:10.37,2013-05-30 21:12:00,
2013-05-30 16:17:00,74.2,64.2,29.59,SSE,163,2.9,6.9,71,0.00,OVC,,0.11,346.0,WeatherDisplay:10.37,2013-05-30 21:17:00,
2013-05-30 16:22:00,73.9,63.9,29.58,SSE,157,7.6,12.7,71,0.00,OVC,,0.11,329.0,WeatherDisplay:10.37,2013-05-30 21:22:00,
2013-05-30 16:27:00,73.5,64.3,29.59,South,178,2.7,9.0,73,0.00,OVC,,0.11,271.0,WeatherDisplay:10.37,2013-05-30 21:27:00,
2013-05-30 16:32:00,73.3,64.1,29.59,SE,138,5.5,11.0,73,0.00,OVC,,0.11,244.0,WeatherDisplay:10.37,2013-05-30 21:32:00,
2013-05-30 16:37:00,73.3,64.1,29.58,SSE,157,5.5,11.5,73,0.00,OVC,,0.11,246.0,WeatherDisplay:10.37,2013-05-30 21:37:00,
2013-05-30 16:42:00,73.2,64.4,29.58,SSW,194,4.6,10.4,74,0.00,OVC,,0.11,274.0,WeatherDisplay:10.37,2013-05-30 21:42:00,
2013-05-30 16:47:00,73.3,64.5,29.58,South,184,5.2,14.0,74,0.00,OVC,,0.11,248.0,WeatherDisplay:10.37,2013-05-30 21:47:00,
2013-05-30 16:52:00,73.3,64.5,29.58,SE,138,5.1,8.1,74,0.00,OVC,,0.11,352.0,WeatherDisplay:10.37,2013-05-30 21:52:00,
2013-05-30 16:57:00,73.5,65.1,29.58,SSE,157,4.0,8.0,75,0.00,OVC,,0.11,299.0,WeatherDisplay:10.37,2013-05-30 21:57:00,
2013-05-30 17:02:00,73.1,63.9,29.58,SSE,165,4.2,8.1,73,0.00,OVC,,0.11,287.0,WeatherDisplay:10.37,2013-05-30 22:02:00,
2013-05-30 17:07:00,73.1,63.9,29.58,SSW,192,4.9,9.2,73,0.00,OVC,,0.11,255.0,WeatherDisplay:10.37,2013-05-30 22:07:00,
2013-05-30 17:12:00,73.1,63.9,29.58,SSE,155,5.2,7.0,73,0.00,OVC,,0.11,230.0,WeatherDisplay:10.37,2013-05-30 22:12:00,
2013-05-30 17:17:00,73.0,63.8,29.58,SSE,167,3.9,7.0,73,0.00,OVC,,0.11,207.0,WeatherDisplay:10.37,2013-05-30 22:17:00,
2013-05-30 17:22:00,72.8,64.0,29.58,SSW,209,2.7,6.0,74,0.00,OVC,,0.11,188.0,WeatherDisplay:10.37,2013-05-30 22:22:00,
2013-05-30 17:27:00,72.6,63.4,29.58,South,184,3.5,8.0,73,0.00,OVC,,0.11,160.0,WeatherDisplay:10.37,2013-05-30 22:27:00,
2013-05-30 17:32:00,72.4,63.3,29.58,SE,132,3.3,8.1,73,0.00,OVC,,0.11,158.0,WeatherDisplay:10.37,2013-05-30 22:32:00,
2013-05-30 17:37:00,72.4,63.6,29.58,SSE,167,1.5,4.0,74,0.00,OVC,,0.11,163.0,WeatherDisplay:10.37,2013-05-30 22:37:00,
2013-05-30 17:42:00,72.2,63.1,29.58,SSE,164,2.7,4.0,73,0.00,OVC,,0.11,155.0,WeatherDisplay:10.37,2013-05-30 22:42:00,
2013-05-30 17:47:00,72.1,63.7,29.58,SE,134,3.6,6.0,75,0.00,OVC,,0.11,72.0,WeatherDisplay:10.37,2013-05-30 22:47:00,
2013-05-30 17:52:00,71.7,63.4,29.58,South,171,4.8,8.0,75,0.00,OVC,,0.11,83.0,WeatherDisplay:10.37,2013-05-30 22:52:00,
2013-05-30 17:57:00,71.6,63.6,29.58,South,175,3.2,7.0,76,0.00,OVC,,0.11,105.0,WeatherDisplay:10.37,2013-05-30 22:57:00,
2013-05-30 18:02:00,71.6,63.6,29.58,SSW,197,2.0,5.0,76,0.00,OVC,,0.11,135.0,WeatherDisplay:10.37,2013-05-30 23:02:00,
2013-05-30 18:07:00,71.6,64.0,29.58,SE,139,4.5,9.0,77,0.00,OVC,,0.11,113.0,WeatherDisplay:10.37,2013-05-30 23:07:00,
2013-05-30 18:12:00,71.3,63.7,29.58,NNW,332,2.8,6.9,77,0.00,OVC,,0.11,88.0,WeatherDisplay:10.37,2013-05-30 23:12:00,
2013-05-30 18:17:00,70.8,64.0,29.59,South,169,2.9,8.1,79,0.00,OVC,,0.11,37.0,WeatherDisplay:10.37,2013-05-30 23:17:00,
2013-05-30 18:22:00,69.3,64.3,29.58,SSW,200,3.2,5.0,84,0.01,RA,,0.12,37.0,WeatherDisplay:10.37,2013-05-30 23:22:00,
2013-05-30 18:27:00,68.0,64.0,29.59,SE,143,4.6,10.0,87,0.01,RA,,0.12,33.0,WeatherDisplay:10.37,2013-05-30 23:27:00,
2013-05-30 18:32:00,66.4,63.4,29.59,South,169,2.1,5.0,90,0.03,RA,,0.15,40.0,WeatherDisplay:10.37,2013-05-30 23:32:00,
2013-05-30 18:37:00,65.6,63.5,29.59,ESE,113,1.3,3.5,93,0.06,RA,,0.18,40.0,WeatherDisplay:10.37,2013-05-30 23:37:00,
2013-05-30 18:42:00,65.2,63.4,29.59,South,171,3.1,5.0,94,0.09,RA,,0.20,28.0,WeatherDisplay:10.37,2013-05-30 23:42:00,
2013-05-30 18:47:00,64.7,63.2,29.59,ESE,120,0.9,3.5,95,0.13,RA,,0.24,23.0,WeatherDisplay:10.37,2013-05-30 23:47:00,
2013-05-30 18:52:00,64.5,63.0,29.59,SSE,164,2.1,3.5,95,0.15,RA,,0.27,19.0,WeatherDisplay:10.37,2013-05-30 23:52:00,
2013-05-30 18:57:00,64.4,63.2,29.59,ENE,61,0.0,1.2,96,0.19,RA,,0.30,46.0,WeatherDisplay:10.37,2013-05-30 23:57:00,
2013-05-30 19:02:00,64.2,63.0,29.58,ESE,122,0.0,1.2,96,0.19,-RA,,0.30,51.0,WeatherDisplay:10.37,2013-05-31 00:02:00,
2013-05-30 19:07:00,64.1,62.9,29.58,East,88,0.5,2.3,96,0.19,-RA,,0.30,62.0,WeatherDisplay:10.37,2013-05-31 00:07:00,
2013-05-30 19:12:00,63.8,62.6,29.58,SSE,158,0.1,1.2,96,0.19,-RA,,0.30,32.0,WeatherDisplay:10.37,2013-05-31 00:12:00,
2013-05-30 19:17:00,63.8,62.6,29.58,SSE,160,0.6,2.3,96,0.19,-RA,,0.30,35.0,WeatherDisplay:10.37,2013-05-31 00:17:00,
2013-05-30 19:22:00,63.9,63.0,29.58,SSE,162,0.0,1.0,97,0.18,-RA,,0.30,49.0,WeatherDisplay:10.37,2013-05-31 00:22:00,
2013-05-30 19:27:00,63.6,62.4,29.57,SSE,162,0.2,1.2,96,0.18,-RA,,0.30,72.0,WeatherDisplay:10.37,2013-05-31 00:27:00,
2013-05-30 19:32:00,63.6,62.4,29.57,SE,130,0.2,1.2,96,0.16,-RA,,0.30,74.0,WeatherDisplay:10.37,2013-05-31 00:32:00,
2013-05-30 19:37:00,63.7,62.5,29.57,SE,135,0.1,1.0,96,0.13,-RA,,0.30,70.0,WeatherDisplay:10.37,2013-05-31 00:37:00,
2013-05-30 19:42:00,63.7,62.5,29.57,SE,141,0.0,1.2,96,0.10,-RA,,0.30,62.0,WeatherDisplay:10.37,2013-05-31 00:42:00,
2013-05-30 19:47:00,63.6,62.4,29.57,SE,138,0.0,1.2,96,0.07,-RA,,0.30,65.0,WeatherDisplay:10.37,2013-05-31 00:47:00,
2013-05-30 19:52:00,63.6,62.4,29.58,NE,55,0.9,3.5,96,0.04,-RA,,0.30,63.0,WeatherDisplay:10.37,2013-05-31 00:52:00,
2013-05-30 19:57:00,63.5,62.3,29.58,ENE,58,0.2,1.2,96,0.00,-RA,,0.30,60.0,WeatherDisplay:10.37,2013-05-31 00:57:00,
2013-05-30 20:02:00,63.6,62.4,29.58,NE,50,0.1,1.2,96,0.00,OVC,,0.30,63.0,WeatherDisplay:10.37,2013-05-31 01:02:00,
2013-05-30 20:07:00,63.4,62.2,29.58,ENE,72,0.6,2.3,96,0.00,OVC,,0.30,54.0,WeatherDisplay:10.37,2013-05-31 01:07:00,
2013-05-30 20:12:00,63.3,62.1,29.58,NE,42,1.4,3.5,96,0.00,OVC,,0.30,49.0,WeatherDisplay:10.37,2013-05-31 01:12:00,
2013-05-30 20:17:00,63.4,62.5,29.58,ENE,59,0.1,1.2,97,0.00,OVC,,0.30,32.0,WeatherDisplay:10.37,2013-05-31 01:17:00,
2013-05-30 20:22:00,63.2,62.3,29.58,ENE,59,0.0,0.0,97,0.00,OVC,,0.30,19.0,WeatherDisplay:10.37,2013-05-31 01:22:00,
2013-05-30 20:27:00,63.1,61.9,29.58,NE,47,0.1,1.2,96,0.00,OVC,,0.30,12.0,WeatherDisplay:10.37,2013-05-31 01:27:00,
2013-05-30 20:32:00,63.2,62.3,29.58,NE,44,0.0,2.3,97,0.00,OVC,,0.30,11.0,WeatherDisplay:10.37,2013-05-31 01:32:00,
2013-05-30 20:37:00,63.3,62.4,29.58,SSE,157,0.1,1.2,97,0.00,OVC,,0.30,7.0,WeatherDisplay:10.37,2013-05-31 01:37:00,
2013-05-30 20:42:00,63.3,62.4,29.58,NE,39,0.9,3.0,97,0.00,OVC,,0.30,5.0,WeatherDisplay:10.37,2013-05-31 01:42:00,
2013-05-30 20:47:00,63.5,62.6,29.58,SE,127,0.6,2.0,97,0.00,OVC,,0.30,5.0,WeatherDisplay:10.37,2013-05-31 01:47:00,
2013-05-30 20:52:00,63.6,62.7,29.58,SE,141,0.3,1.2,97,0.00,OVC,,0.30,0.0,WeatherDisplay:10.37,2013-05-31 01:52:00,
2013-05-30 20:58:00,63.7,62.8,29.58,SSE,167,1.1,3.0,97,0.00,OVC,,0.30,0.0,WeatherDisplay:10.37,2013-05-31 01:58:00,
2013-05-30 21:03:00,63.8,63.8,29.58,SSE,168,2.1,4.0,100,0.00,OVC,,0.30,0.0,WeatherDisplay:10.37,2013-05-31 02:03:00,
2013-05-30 21:08:00,63.9,63.9,29.58,South,190,0.8,2.3,100,0.00,OVC,,0.30,0.0,WeatherDisplay:10.37,2013-05-31 02:08:00,
2013-05-30 21:13:00,63.9,63.9,29.58,South,190,0.8,2.3,100,0.00,OVC,,0.30,0.0,WeatherDisplay:10.37,2013-05-31 02:13:00,
2013-05-30 21:18:00,63.9,63.9,29.58,South,190,0.2,2.3,100,0.00,OVC,,0.30,0.0,WeatherDisplay:10.37,2013-05-31 02:18:00,
2013-05-30 21:23:00,63.9,63.9,29.57,South,189,0.0,0.0,100,0.00,OVC,,0.30,0.0,WeatherDisplay:10.37,2013-05-31 02:23:00,
2013-05-30 21:28:00,63.9,63.9,29.57,South,189,0.9,2.3,100,0.00,OVC,,0.30,0.0,WeatherDisplay:10.37,2013-05-31 02:28:00,
2013-05-30 21:33:00,63.9,63.9,29.57,South,189,0.7,3.5,100,0.00,OVC,,0.30,0.0,WeatherDisplay:10.37,2013-05-31 02:33:00,
2013-05-30 21:38:00,63.8,63.8,29.57,South,188,2.6,5.0,100,0.00,OVC,,0.30,0.0,WeatherDisplay:10.37,2013-05-31 02:38:00,
2013-05-30 21:43:00,63.8,63.8,29.57,South,186,2.6,4.0,100,0.00,OVC,,0.30,0.0,WeatherDisplay:10.37,2013-05-31 02:43:00,
2013-05-30 21:48:00,63.7,63.7,29.57,South,185,1.2,3.5,100,0.00,OVC,,0.30,0.0,WeatherDisplay:10.37,2013-05-31 02:48:00,
2013-05-30 21:53:00,63.7,63.7,29.57,SSE,166,0.8,3.5,100,0.00,OVC,,0.30,0.0,WeatherDisplay:10.37,2013-05-31 02:53:00,
2013-05-30 21:58:00,63.7,63.7,29.57,South,186,2.1,4.0,100,0.00,OVC,,0.30,0.0,WeatherDisplay:10.37,2013-05-31 02:58:00,
2013-05-30 22:03:00,63.7,63.7,29.57,South,186,2.2,4.0,100,0.00,OVC,,0.30,0.0,WeatherDisplay:10.37,2013-05-31 03:03:00,
2013-05-30 22:08:00,63.7,63.7,29.57,South,186,1.2,2.3,100,0.00,OVC,,0.30,0.0,WeatherDisplay:10.37,2013-05-31 03:08:00,
2013-05-30 22:13:00,63.6,63.6,29.57,South,174,1.0,2.3,100,0.00,OVC,,0.30,0.0,WeatherDisplay:10.37,2013-05-31 03:13:00,
2013-05-30 22:18:00,63.6,63.6,29.57,South,175,1.9,3.5,100,0.00,OVC,,0.30,0.0,WeatherDisplay:10.37,2013-05-31 03:18:00,
2013-05-30 22:23:00,63.6,63.6,29.57,South,175,0.6,2.3,100,0.00,OVC,,0.30,0.0,WeatherDisplay:10.37,2013-05-31 03:23:00,
2013-05-30 22:28:00,63.5,63.5,29.57,South,175,0.8,2.3,100,0.00,OVC,,0.30,0.0,WeatherDisplay:10.37,2013-05-31 03:28:00,
2013-05-30 22:33:00,63.5,63.5,29.57,South,175,1.0,3.0,100,0.00,OVC,,0.30,0.0,WeatherDisplay:10.37,2013-05-31 03:33:00,
2013-05-30 22:38:00,63.5,63.5,29.57,South,175,1.4,3.5,100,0.00,OVC,,0.30,0.0,WeatherDisplay:10.37,2013-05-31 03:38:00,
2013-05-30 22:43:00,63.6,63.6,29.57,South,174,2.9,5.0,100,0.00,OVC,,0.30,0.0,WeatherDisplay:10.37,2013-05-31 03:43:00,
2013-05-30 22:48:00,63.5,63.5,29.57,South,180,1.0,3.0,100,0.00,OVC,,0.30,0.0,WeatherDisplay:10.37,2013-05-31 03:48:00,
2013-05-30 22:53:00,63.5,63.5,29.57,South,183,0.8,3.5,100,0.00,OVC,,0.30,0.0,WeatherDisplay:10.37,2013-05-31 03:53:00,
2013-05-30 22:58:00,63.4,63.4,29.57,SSW,202,0.6,2.0,100,0.00,OVC,,0.30,0.0,WeatherDisplay:10.37,2013-05-31 03:58:00,
2013-05-30 23:01:00,63.4,63.4,29.57,SSE,161,2.0,5.0,100,0.00,OVC,,0.30,0.0,WeatherDisplay:10.37,2013-05-31 04:01:00,
2013-05-30 23:03:00,63.4,63.4,29.56,SSE,154,2.5,5.0,100,0.00,OVC,,0.30,0.0,WeatherDisplay:10.37,2013-05-31 04:03:00,
2013-05-30 23:05:00,63.4,63.4,29.56,South,169,1.0,5.0,100,0.00,OVC,OVC,0.30,0.0,WeatherDisplay:10.37,2013-05-31 04:05:00,
2013-05-30 23:07:00,63.4,63.4,29.56,South,178,3.2,5.0,100,0.00,OVC,,0.30,0.0,WeatherDisplay:10.37,2013-05-31 04:07:00,
2013-05-30 23:12:00,63.5,63.5,29.56,South,190,3.3,6.0,100,0.00,OVC,,0.30,0.0,WeatherDisplay:10.37,2013-05-31 04:12:00,
2013-05-30 23:15:00,63.5,63.5,29.57,South,176,3.0,7.0,100,0.00,OVC,OVC,0.30,0.0,WeatherDisplay:10.37,2013-05-31 04:15:00,
2013-05-30 23:20:00,63.5,63.5,29.57,South,177,3.0,7.0,100,0.00,OVC,OVC,0.30,0.0,WeatherDisplay:10.37,2013-05-31 04:20:00,
2013-05-30 23:25:00,63.5,63.5,29.57,South,177,2.0,6.0,100,0.00,OVC,OVC,0.30,0.0,WeatherDisplay:10.37,2013-05-31 04:25:00,
2013-05-30 23:30:00,63.6,63.6,29.56,South,171,5.0,9.0,100,0.00,OVC,OVC,0.30,0.0,WeatherDisplay:10.37,2013-05-31 04:30:00,
2013-05-30 23:35:00,63.6,63.6,29.56,South,171,3.0,9.0,100,0.00,OVC,OVC,0.30,0.0,WeatherDisplay:10.37,2013-05-31 04:35:00,
2013-05-30 23:40:00,63.6,63.6,29.57,SSE,162,3.0,7.0,100,0.00,OVC,OVC,0.30,0.0,WeatherDisplay:10.37,2013-05-31 04:40:00,
2013-05-30 23:45:00,63.6,63.6,29.56,SSE,161,3.0,9.0,100,0.00,OVC,OVC,0.30,0.0,WeatherDisplay:10.37,2013-05-31 04:45:00,
2013-05-30 23:50:00,63.6,63.6,29.56,South,170,3.0,12.0,100,0.00,OVC,OVC,0.30,0.0,WeatherDisplay:10.37,2013-05-31 04:50:00,
2013-05-30 23:55:00,63.6,63.6,29.56,SSE,167,5.0,13.0,100,0.00,OVC,OVC,0.30,0.0,WeatherDisplay:10.37,2013-05-31 04:55:00,